sensor_id;sensor_type;location;lat;lon;timestamp;pressure;altitude;pressure_sealevel;temperature;humidity
76766;BME280;65707;52.362;6.588;2023-10-09T00:01:50;101968.88;;;14.36;80.58
76766;BME280;65707;52.362;6.588;2023-10-09T00:04:17;101971.09;;;14.49;80.99
76766;BME280;65707;52.362;6.588;2023-10-09T00:06:45;101968.88;;;14.44;81.14
76766;BME280;65707;52.362;6.588;2023-10-09T00:09:13;101961.50;;;14.54;81.16
76766;BME280;65707;52.362;6.588;2023-10-09T00:11:57;101975.66;;;14.56;81.18
76766;BME280;65707;52.362;6.588;2023-10-09T00:14:26;101985.66;;;14.64;81.15
76766;BME280;65707;52.362;6.588;2023-10-09T00:16:55;101977.03;;;14.68;80.94
76766;BME280;65707;52.362;6.588;2023-10-09T00:19:42;101975.34;;;14.83;80.56
76766;BME280;65707;52.362;6.588;2023-10-09T00:22:11;101962.84;;;14.82;81.16
76766;BME280;65707;52.362;6.588;2023-10-09T00:24:51;101969.28;;;14.81;81.26
76766;BME280;65707;52.362;6.588;2023-10-09T00:27:38;101970.13;;;14.90;81.41
76766;BME280;65707;52.362;6.588;2023-10-09T00:30:13;101972.66;;;14.91;81.49
76766;BME280;65707;52.362;6.588;2023-10-09T00:32:46;101969.25;;;15.05;81.33
76766;BME280;65707;52.362;6.588;2023-10-09T00:35:24;101968.56;;;15.11;81.05
76766;BME280;65707;52.362;6.588;2023-10-09T00:38:19;101973.97;;;15.11;81.55
76766;BME280;65707;52.362;6.588;2023-10-09T00:40:57;101964.72;;;15.06;81.76
76766;BME280;65707;52.362;6.588;2023-10-09T00:43:36;101961.66;;;15.17;81.67
76766;BME280;65707;52.362;6.588;2023-10-09T00:46:08;101964.19;;;15.18;81.39
76766;BME280;65707;52.362;6.588;2023-10-09T00:48:50;101952.00;;;15.22;81.59
76766;BME280;65707;52.362;6.588;2023-10-09T00:51:22;101959.28;;;15.22;81.67
76766;BME280;65707;52.362;6.588;2023-10-09T00:53:54;101955.56;;;15.31;80.92
76766;BME280;65707;52.362;6.588;2023-10-09T00:56:24;101942.19;;;15.29;81.38
76766;BME280;65707;52.362;6.588;2023-10-09T00:59:06;101946.94;;;15.27;81.83
76766;BME280;65707;52.362;6.588;2023-10-09T01:01:41;101945.91;;;15.28;81.71
76766;BME280;65707;52.362;6.588;2023-10-09T01:04:21;101936.63;;;15.39;81.59
76766;BME280;65707;52.362;6.588;2023-10-09T01:06:51;101942.56;;;15.42;81.45
76766;BME280;65707;52.362;6.588;2023-10-09T01:09:31;101934.72;;;15.47;81.36
76766;BME280;65707;52.362;6.588;2023-10-09T01:12:02;101927.28;;;15.58;80.91
76766;BME280;65707;52.362;6.588;2023-10-09T01:14:31;101929.31;;;15.56;80.96
76766;BME280;65707;52.362;6.588;2023-10-09T01:17:02;101926.59;;;15.56;81.12
76766;BME280;65707;52.362;6.588;2023-10-09T01:19:33;101917.13;;;15.60;81.01
76766;BME280;65707;52.362;6.588;2023-10-09T01:21:59;101905.09;;;15.62;81.43
76766;BME280;65707;52.362;6.588;2023-10-09T01:24:31;101905.25;;;15.69;81.60
76766;BME280;65707;52.362;6.588;2023-10-09T01:27:00;101904.22;;;15.70;81.51
76766;BME280;65707;52.362;6.588;2023-10-09T01:29:30;101900.16;;;15.74;81.45
76766;BME280;65707;52.362;6.588;2023-10-09T01:32:00;101891.66;;;15.85;81.02
76766;BME280;65707;52.362;6.588;2023-10-09T01:34:29;101889.28;;;15.82;81.18
76766;BME280;65707;52.362;6.588;2023-10-09T01:37:08;101890.56;;;15.94;80.68
76766;BME280;65707;52.362;6.588;2023-10-09T01:39:45;101900.09;;;15.90;80.69
76766;BME280;65707;52.362;6.588;2023-10-09T01:42:13;101893.28;;;15.94;81.16
76766;BME280;65707;52.362;6.588;2023-10-09T01:44:49;101896.13;;;16.00;80.38
76766;BME280;65707;52.362;6.588;2023-10-09T01:47:18;101890.81;;;16.15;79.95
76766;BME280;65707;52.362;6.588;2023-10-09T01:49:46;101881.31;;;16.11;80.15
76766;BME280;65707;52.362;6.588;2023-10-09T01:52:15;101876.94;;;16.10;80.16
76766;BME280;65707;52.362;6.588;2023-10-09T01:54:45;101887.28;;;16.06;80.60
76766;BME280;65707;52.362;6.588;2023-10-09T01:57:17;101886.38;;;16.14;80.56
76766;BME280;65707;52.362;6.588;2023-10-09T01:59:48;101872.97;;;16.20;80.32
76766;BME280;65707;52.362;6.588;2023-10-09T02:02:21;101879.59;;;16.18;80.46
76766;BME280;65707;52.362;6.588;2023-10-09T02:04:53;101871.84;;;16.15;80.28
76766;BME280;65707;52.362;6.588;2023-10-09T02:07:35;101874.13;;;16.26;80.21
76766;BME280;65707;52.362;6.588;2023-10-09T02:10:11;101863.88;;;16.36;79.88
76766;BME280;65707;52.362;6.588;2023-10-09T02:12:51;101870.69;;;16.32;79.80
76766;BME280;65707;52.362;6.588;2023-10-09T02:15:23;101854.91;;;16.35;79.91
76766;BME280;65707;52.362;6.588;2023-10-09T02:18:04;101852.09;;;16.29;80.08
76766;BME280;65707;52.362;6.588;2023-10-09T02:20:42;101848.34;;;16.30;80.06
76766;BME280;65707;52.362;6.588;2023-10-09T02:23:10;101843.31;;;16.27;80.17
76766;BME280;65707;52.362;6.588;2023-10-09T02:25:40;101833.72;;;16.39;79.67
76766;BME280;65707;52.362;6.588;2023-10-09T02:28:08;101831.50;;;16.20;80.46
76766;BME280;65707;52.362;6.588;2023-10-09T02:30:43;101823.31;;;16.28;80.07
76766;BME280;65707;52.362;6.588;2023-10-09T02:33:13;101830.25;;;16.30;80.51
76766;BME280;65707;52.362;6.588;2023-10-09T02:35:44;101830.38;;;16.37;80.35
76766;BME280;65707;52.362;6.588;2023-10-09T02:38:16;101826.25;;;16.41;80.04
76766;BME280;65707;52.362;6.588;2023-10-09T02:40:49;101819.28;;;16.46;79.92
76766;BME280;65707;52.362;6.588;2023-10-09T02:43:43;101824.28;;;16.35;80.61
76766;BME280;65707;52.362;6.588;2023-10-09T02:46:11;101819.16;;;16.40;80.54
76766;BME280;65707;52.362;6.588;2023-10-09T02:48:43;101812.00;;;16.47;80.24
76766;BME280;65707;52.362;6.588;2023-10-09T02:51:12;101818.50;;;16.38;80.31
76766;BME280;65707;52.362;6.588;2023-10-09T02:53:47;101821.09;;;16.54;79.86
76766;BME280;65707;52.362;6.588;2023-10-09T02:56:16;101823.19;;;16.44;80.25
76766;BME280;65707;52.362;6.588;2023-10-09T02:58:50;101829.81;;;16.41;80.18
76766;BME280;65707;52.362;6.588;2023-10-09T03:01:17;101827.41;;;16.46;80.35
76766;BME280;65707;52.362;6.588;2023-10-09T03:03:44;101825.00;;;16.51;80.04
76766;BME280;65707;52.362;6.588;2023-10-09T03:06:12;101823.19;;;16.44;80.12
76766;BME280;65707;52.362;6.588;2023-10-09T03:08:50;101816.25;;;16.49;79.94
76766;BME280;65707;52.362;6.588;2023-10-09T03:11:18;101809.78;;;16.50;80.00
76766;BME280;65707;52.362;6.588;2023-10-09T03:13:48;101805.72;;;16.46;80.23
76766;BME280;65707;52.362;6.588;2023-10-09T03:16:16;101813.34;;;16.51;80.25
76766;BME280;65707;52.362;6.588;2023-10-09T03:18:45;101797.34;;;16.56;80.02
76766;BME280;65707;52.362;6.588;2023-10-09T03:21:13;101793.63;;;16.57;79.93
76766;BME280;65707;52.362;6.588;2023-10-09T03:23:45;101780.47;;;16.54;80.07
76766;BME280;65707;52.362;6.588;2023-10-09T03:26:15;101786.69;;;16.54;80.22
76766;BME280;65707;52.362;6.588;2023-10-09T03:28:45;101799.13;;;16.49;80.66
76766;BME280;65707;52.362;6.588;2023-10-09T03:31:15;101791.03;;;16.41;81.18
76766;BME280;65707;52.362;6.588;2023-10-09T03:33:44;101793.38;;;16.44;81.18
76766;BME280;65707;52.362;6.588;2023-10-09T03:36:13;101791.66;;;16.51;80.86
76766;BME280;65707;52.362;6.588;2023-10-09T03:38:43;101791.84;;;16.49;81.15
76766;BME280;65707;52.362;6.588;2023-10-09T03:41:10;101793.81;;;16.55;80.99
76766;BME280;65707;52.362;6.588;2023-10-09T03:43:39;101796.72;;;16.54;81.20
76766;BME280;65707;52.362;6.588;2023-10-09T03:46:08;101792.03;;;16.62;81.12
76766;BME280;65707;52.362;6.588;2023-10-09T03:48:40;101791.84;;;16.64;81.15
76766;BME280;65707;52.362;6.588;2023-10-09T03:51:18;101793.81;;;16.70;80.96
76766;BME280;65707;52.362;6.588;2023-10-09T03:53:47;101790.66;;;16.66;81.19
76766;BME280;65707;52.362;6.588;2023-10-09T03:56:15;101789.34;;;16.77;80.67
76766;BME280;65707;52.362;6.588;2023-10-09T03:58:43;101791.69;;;16.80;80.44
76766;BME280;65707;52.362;6.588;2023-10-09T04:01:13;101795.44;;;16.79;80.63
76766;BME280;65707;52.362;6.588;2023-10-09T04:03:48;101801.59;;;16.73;81.08
76766;BME280;65707;52.362;6.588;2023-10-09T04:06:15;101797.13;;;16.80;80.82
76766;BME280;65707;52.362;6.588;2023-10-09T04:08:43;101800.00;;;16.78;80.87
76766;BME280;65707;52.362;6.588;2023-10-09T04:11:13;101796.06;;;16.81;80.82
76766;BME280;65707;52.362;6.588;2023-10-09T04:13:44;101796.38;;;16.86;80.35
76766;BME280;65707;52.362;6.588;2023-10-09T04:16:13;101801.59;;;16.87;80.71
76766;BME280;65707;52.362;6.588;2023-10-09T04:18:58;101807.78;;;16.96;80.54
76766;BME280;65707;52.362;6.588;2023-10-09T04:21:26;101806.75;;;16.97;80.24
76766;BME280;65707;52.362;6.588;2023-10-09T04:24:00;101800.13;;;16.99;80.25
76766;BME280;65707;52.362;6.588;2023-10-09T04:26:48;101803.69;;;17.15;79.97
76766;BME280;65707;52.362;6.588;2023-10-09T04:29:22;101807.03;;;17.02;80.26
76766;BME280;65707;52.362;6.588;2023-10-09T04:32:05;101799.28;;;16.99;81.03
76766;BME280;65707;52.362;6.588;2023-10-09T04:34:41;101794.16;;;17.04;80.69
76766;BME280;65707;52.362;6.588;2023-10-09T04:37:14;101797.88;;;17.03;80.81
76766;BME280;65707;52.362;6.588;2023-10-09T04:40:02;101803.84;;;16.98;81.22
76766;BME280;65707;52.362;6.588;2023-10-09T04:42:37;101807.31;;;16.92;81.74
76766;BME280;65707;52.362;6.588;2023-10-09T04:45:05;101806.09;;;16.95;81.53
76766;BME280;65707;52.362;6.588;2023-10-09T04:48:02;101807.31;;;16.92;82.23
76766;BME280;65707;52.362;6.588;2023-10-09T04:50:34;101810.31;;;16.97;81.94
76766;BME280;65707;52.362;6.588;2023-10-09T04:53:33;101814.88;;;16.97;81.94
76766;BME280;65707;52.362;6.588;2023-10-09T04:56:09;101810.41;;;17.04;81.56
76766;BME280;65707;52.362;6.588;2023-10-09T04:58:41;101828.38;;;17.05;82.00
76766;BME280;65707;52.362;6.588;2023-10-09T05:01:09;101829.69;;;17.09;81.84
76766;BME280;65707;52.362;6.588;2023-10-09T05:03:42;101815.56;;;17.14;81.68
76766;BME280;65707;52.362;6.588;2023-10-09T05:06:11;101819.47;;;17.26;81.35
76766;BME280;65707;52.362;6.588;2023-10-09T05:09:09;101821.72;;;17.22;81.44
76766;BME280;65707;52.362;6.588;2023-10-09T05:11:39;101804.06;;;17.26;81.40
76766;BME280;65707;52.362;6.588;2023-10-09T05:14:41;101798.25;;;17.29;81.53
76766;BME280;65707;52.362;6.588;2023-10-09T05:17:31;101809.19;;;17.21;81.41
76766;BME280;65707;52.362;6.588;2023-10-09T05:20:03;101815.63;;;17.20;81.89
76766;BME280;65707;52.362;6.588;2023-10-09T05:22:59;101823.22;;;17.25;81.60
76766;BME280;65707;52.362;6.588;2023-10-09T05:25:47;101833.41;;;17.23;81.92
76766;BME280;65707;52.362;6.588;2023-10-09T05:28:21;101829.84;;;17.22;81.78
76766;BME280;65707;52.362;6.588;2023-10-09T05:31:14;101833.72;;;17.28;81.33
76766;BME280;65707;52.362;6.588;2023-10-09T05:34:05;101842.94;;;17.33;81.48
76766;BME280;65707;52.362;6.588;2023-10-09T05:36:33;101843.53;;;17.43;81.15
76766;BME280;65707;52.362;6.588;2023-10-09T05:39:01;101843.22;;;17.38;81.35
76766;BME280;65707;52.362;6.588;2023-10-09T05:41:44;101846.22;;;17.43;81.24
76766;BME280;65707;52.362;6.588;2023-10-09T05:44:25;101841.81;;;17.42;81.34
76766;BME280;65707;52.362;6.588;2023-10-09T05:47:09;101835.75;;;17.55;80.90
76766;BME280;65707;52.362;6.588;2023-10-09T05:49:54;101838.91;;;17.44;81.49
76766;BME280;65707;52.362;6.588;2023-10-09T05:52:29;101845.69;;;17.48;81.32
76766;BME280;65707;52.362;6.588;2023-10-09T05:54:58;101857.59;;;17.47;81.31
76766;BME280;65707;52.362;6.588;2023-10-09T05:57:42;101855.19;;;17.44;81.62
76766;BME280;65707;52.362;6.588;2023-10-09T06:00:27;101853.63;;;17.35;82.07
76766;BME280;65707;52.362;6.588;2023-10-09T06:03:11;101848.00;;;17.36;82.59
76766;BME280;65707;52.362;6.588;2023-10-09T06:05:51;101847.94;;;17.44;82.66
76766;BME280;65707;52.362;6.588;2023-10-09T06:08:31;101854.09;;;17.38;82.64
76766;BME280;65707;52.362;6.588;2023-10-09T06:11:13;101839.78;;;17.44;82.56
76766;BME280;65707;52.362;6.588;2023-10-09T06:14:02;101837.75;;;17.46;82.52
76766;BME280;65707;52.362;6.588;2023-10-09T06:16:30;101851.78;;;17.50;82.54
76766;BME280;65707;52.362;6.588;2023-10-09T06:19:06;101871.03;;;17.55;82.47
76766;BME280;65707;52.362;6.588;2023-10-09T06:21:38;101851.03;;;17.56;82.77
76766;BME280;65707;52.362;6.588;2023-10-09T06:24:07;101863.44;;;17.65;81.95
76766;BME280;65707;52.362;6.588;2023-10-09T06:26:44;101858.03;;;17.65;82.24
76766;BME280;65707;52.362;6.588;2023-10-09T06:29:23;101829.28;;;17.70;81.89
76766;BME280;65707;52.362;6.588;2023-10-09T06:32:01;101819.63;;;17.68;82.02
76766;BME280;65707;52.362;6.588;2023-10-09T06:35:00;101838.16;;;17.64;82.28
76766;BME280;65707;52.362;6.588;2023-10-09T06:37:42;101859.41;;;17.75;82.18
76766;BME280;65707;52.362;6.588;2023-10-09T06:40:25;101863.91;;;17.68;82.55
76766;BME280;65707;52.362;6.588;2023-10-09T06:43:11;101859.69;;;17.80;81.99
76766;BME280;65707;52.362;6.588;2023-10-09T06:45:42;101863.91;;;17.83;81.86
76766;BME280;65707;52.362;6.588;2023-10-09T06:48:19;101857.69;;;17.89;82.04
76766;BME280;65707;52.362;6.588;2023-10-09T06:51:09;101850.75;;;17.86;82.07
76766;BME280;65707;52.362;6.588;2023-10-09T06:53:41;101852.53;;;17.94;81.49
76766;BME280;65707;52.362;6.588;2023-10-09T06:56:24;101853.81;;;17.98;81.60
76766;BME280;65707;52.362;6.588;2023-10-09T06:59:12;101848.47;;;18.04;81.36
76766;BME280;65707;52.362;6.588;2023-10-09T07:01:42;101849.88;;;18.00;81.61
76766;BME280;65707;52.362;6.588;2023-10-09T07:04:11;101855.66;;;18.12;80.94
76766;BME280;65707;52.362;6.588;2023-10-09T07:06:46;101858.09;;;18.07;81.20
76766;BME280;65707;52.362;6.588;2023-10-09T07:09:18;101859.50;;;18.17;81.02
76766;BME280;65707;52.362;6.588;2023-10-09T07:11:47;101848.16;;;18.14;81.05
76766;BME280;65707;52.362;6.588;2023-10-09T07:14:25;101850.69;;;18.15;81.15
76766;BME280;65707;52.362;6.588;2023-10-09T07:17:09;101833.91;;;18.12;81.68
76766;BME280;65707;52.362;6.588;2023-10-09T07:19:47;101818.28;;;18.14;81.33
76766;BME280;65707;52.362;6.588;2023-10-09T07:22:35;101820.00;;;18.21;81.32
76766;BME280;65707;52.362;6.588;2023-10-09T07:25:20;101825.31;;;18.29;81.03
76766;BME280;65707;52.362;6.588;2023-10-09T07:28:18;101836.97;;;18.23;81.25
76766;BME280;65707;52.362;6.588;2023-10-09T07:30:55;101836.38;;;18.28;80.89
76766;BME280;65707;52.362;6.588;2023-10-09T07:33:24;101843.84;;;18.40;80.69
76766;BME280;65707;52.362;6.588;2023-10-09T07:36:16;101846.19;;;18.43;80.65
76766;BME280;65707;52.362;6.588;2023-10-09T07:38:55;101852.34;;;18.52;80.12
76766;BME280;65707;52.362;6.588;2023-10-09T07:41:29;101867.34;;;18.48;80.47
76766;BME280;65707;52.362;6.588;2023-10-09T07:44:11;101870.19;;;18.40;80.69
76766;BME280;65707;52.362;6.588;2023-10-09T07:47:01;101866.56;;;18.54;80.65
76766;BME280;65707;52.362;6.588;2023-10-09T07:49:43;101870.72;;;18.50;80.38
76766;BME280;65707;52.362;6.588;2023-10-09T07:52:15;101861.06;;;18.47;80.70
76766;BME280;65707;52.362;6.588;2023-10-09T07:54:42;101858.41;;;18.54;80.35
76766;BME280;65707;52.362;6.588;2023-10-09T07:57:19;101857.94;;;18.50;80.66
76766;BME280;65707;52.362;6.588;2023-10-09T07:59:52;101852.97;;;18.54;80.79
76766;BME280;65707;52.362;6.588;2023-10-09T08:02:37;101859.25;;;18.55;80.28
76766;BME280;65707;52.362;6.588;2023-10-09T08:05:05;101844.66;;;18.62;80.25
76766;BME280;65707;52.362;6.588;2023-10-09T08:07:44;101843.13;;;18.53;80.49
76766;BME280;65707;52.362;6.588;2023-10-09T08:10:22;101835.63;;;18.55;80.62
76766;BME280;65707;52.362;6.588;2023-10-09T08:13:06;101833.53;;;18.57;80.49
76766;BME280;65707;52.362;6.588;2023-10-09T08:15:55;101838.38;;;18.62;80.13
76766;BME280;65707;52.362;6.588;2023-10-09T08:18:26;101831.47;;;18.59;80.33
76766;BME280;65707;52.362;6.588;2023-10-09T08:20:57;101837.47;;;18.76;80.14
76766;BME280;65707;52.362;6.588;2023-10-09T08:23:41;101833.31;;;18.80;80.00
76766;BME280;65707;52.362;6.588;2023-10-09T08:26:19;101845.84;;;18.81;79.85
76766;BME280;65707;52.362;6.588;2023-10-09T08:28:57;101845.56;;;18.97;79.61
76766;BME280;65707;52.362;6.588;2023-10-09T08:31:39;101829.66;;;18.94;79.28
76766;BME280;65707;52.362;6.588;2023-10-09T08:34:27;101816.69;;;18.96;79.24
76766;BME280;65707;52.362;6.588;2023-10-09T08:37:10;101798.28;;;18.98;79.08
76766;BME280;65707;52.362;6.588;2023-10-09T08:39:38;101806.41;;;18.91;79.68
76766;BME280;65707;52.362;6.588;2023-10-09T08:42:05;101819.84;;;18.99;79.42
76766;BME280;65707;52.362;6.588;2023-10-09T08:44:33;101828.44;;;19.03;79.71
76766;BME280;65707;52.362;6.588;2023-10-09T08:47:07;101841.94;;;19.17;78.75
76766;BME280;65707;52.362;6.588;2023-10-09T08:49:36;101845.16;;;19.27;78.93
76766;BME280;65707;52.362;6.588;2023-10-09T08:52:05;101841.25;;;19.36;78.31
76766;BME280;65707;52.362;6.588;2023-10-09T08:54:32;101858.66;;;19.42;78.51
76766;BME280;65707;52.362;6.588;2023-10-09T08:56:59;101870.22;;;19.50;78.14
76766;BME280;65707;52.362;6.588;2023-10-09T08:59:27;101873.44;;;19.60;78.11
76766;BME280;65707;52.362;6.588;2023-10-09T09:01:58;101885.09;;;19.54;77.63
76766;BME280;65707;52.362;6.588;2023-10-09T09:04:35;101883.91;;;19.63;77.00
76766;BME280;65707;52.362;6.588;2023-10-09T09:07:06;101878.88;;;19.60;77.99
76766;BME280;65707;52.362;6.588;2023-10-09T09:09:54;101869.50;;;19.76;76.80
76766;BME280;65707;52.362;6.588;2023-10-09T09:12:27;101891.03;;;19.64;77.08
76766;BME280;65707;52.362;6.588;2023-10-09T09:14:56;101908.63;;;19.68;77.42
76766;BME280;65707;52.362;6.588;2023-10-09T09:17:29;101926.06;;;19.74;77.42
76766;BME280;65707;52.362;6.588;2023-10-09T09:20:18;101937.63;;;19.82;76.54
76766;BME280;65707;52.362;6.588;2023-10-09T09:22:51;101926.94;;;19.81;76.77
76766;BME280;65707;52.362;6.588;2023-10-09T09:25:20;101923.63;;;19.85;76.46
76766;BME280;65707;52.362;6.588;2023-10-09T09:27:52;101914.59;;;19.85;76.70
76766;BME280;65707;52.362;6.588;2023-10-09T09:30:23;101922.59;;;19.93;76.13
76766;BME280;65707;52.362;6.588;2023-10-09T09:32:57;101936.63;;;19.90;76.03
76766;BME280;65707;52.362;6.588;2023-10-09T09:35:39;101928.03;;;19.86;76.15
76766;BME280;65707;52.362;6.588;2023-10-09T09:38:13;101919.88;;;19.93;75.86
76766;BME280;65707;52.362;6.588;2023-10-09T09:40:43;101912.25;;;19.75;76.14
76766;BME280;65707;52.362;6.588;2023-10-09T09:43:20;101923.25;;;19.95;76.18
76766;BME280;65707;52.362;6.588;2023-10-09T09:45:52;101919.88;;;19.93;76.03
76766;BME280;65707;52.362;6.588;2023-10-09T09:48:22;101923.44;;;20.00;75.65
76766;BME280;65707;52.362;6.588;2023-10-09T09:50:54;101919.06;;;19.99;75.80
76766;BME280;65707;52.362;6.588;2023-10-09T09:53:21;101925.16;;;20.01;76.08
76766;BME280;65707;52.362;6.588;2023-10-09T09:55:50;101913.66;;;20.12;75.57
76766;BME280;65707;52.362;6.588;2023-10-09T09:58:23;101914.13;;;20.22;74.96
76766;BME280;65707;52.362;6.588;2023-10-09T10:01:01;101914.38;;;20.27;74.52
76766;BME280;65707;52.362;6.588;2023-10-09T10:03:44;101913.31;;;20.22;75.10
76766;BME280;65707;52.362;6.588;2023-10-09T10:06:18;101909.13;;;20.32;74.49
76766;BME280;65707;52.362;6.588;2023-10-09T10:08:48;101906.63;;;20.37;74.97
76766;BME280;65707;52.362;6.588;2023-10-09T10:11:44;101919.22;;;20.45;73.75
76766;BME280;65707;52.362;6.588;2023-10-09T10:14:11;101908.16;;;20.59;73.42
76766;BME280;65707;52.362;6.588;2023-10-09T10:17:03;101914.44;;;20.66;72.35
76766;BME280;65707;52.362;6.588;2023-10-09T10:20:01;101930.56;;;20.61;72.87
76766;BME280;65707;52.362;6.588;2023-10-09T10:23:17;101907.06;;;20.47;73.02
76766;BME280;65707;52.362;6.588;2023-10-09T10:26:16;101929.09;;;20.52;73.05
76766;BME280;65707;52.362;6.588;2023-10-09T10:29:16;101922.19;;;20.50;72.18
76766;BME280;65707;52.362;6.588;2023-10-09T10:31:57;101919.06;;;20.59;72.38
76766;BME280;65707;52.362;6.588;2023-10-09T10:34:26;101924.91;;;20.50;72.85
76766;BME280;65707;52.362;6.588;2023-10-09T10:37:35;101916.53;;;20.64;72.31
76766;BME280;65707;52.362;6.588;2023-10-09T10:40:04;101924.31;;;20.67;72.00
76766;BME280;65707;52.362;6.588;2023-10-09T10:42:52;101932.28;;;20.62;71.96
76766;BME280;65707;52.362;6.588;2023-10-09T10:45:36;101931.88;;;20.65;71.98
76766;BME280;65707;52.362;6.588;2023-10-09T10:48:11;101917.81;;;20.81;71.13
76766;BME280;65707;52.362;6.588;2023-10-09T10:50:49;101921.59;;;20.80;71.47
76766;BME280;65707;52.362;6.588;2023-10-09T10:53:23;101923.06;;;20.83;70.64
76766;BME280;65707;52.362;6.588;2023-10-09T10:56:01;101924.09;;;20.75;71.09
76766;BME280;65707;52.362;6.588;2023-10-09T10:58:52;101915.06;;;20.94;70.09
76766;BME280;65707;52.362;6.588;2023-10-09T11:01:37;101922.25;;;21.02;70.10
76766;BME280;65707;52.362;6.588;2023-10-09T11:04:25;101920.53;;;20.94;70.76
76766;BME280;65707;52.362;6.588;2023-10-09T11:07:06;101912.56;;;20.93;71.04
76766;BME280;65707;52.362;6.588;2023-10-09T11:09:43;101916.78;;;21.02;70.11
76766;BME280;65707;52.362;6.588;2023-10-09T11:12:26;101927.25;;;20.92;70.01
76766;BME280;65707;52.362;6.588;2023-10-09T11:15:04;101923.72;;;21.04;70.07
76766;BME280;65707;52.362;6.588;2023-10-09T11:17:34;101923.94;;;21.03;70.52
76766;BME280;65707;52.362;6.588;2023-10-09T11:20:04;101910.06;;;21.04;69.89
76766;BME280;65707;52.362;6.588;2023-10-09T11:22:48;101896.22;;;21.12;70.12
76766;BME280;65707;52.362;6.588;2023-10-09T11:25:42;101897.66;;;21.08;69.69
76766;BME280;65707;52.362;6.588;2023-10-09T11:28:19;101902.91;;;21.10;69.45
76766;BME280;65707;52.362;6.588;2023-10-09T11:31:07;101891.56;;;21.26;68.96
76766;BME280;65707;52.362;6.588;2023-10-09T11:33:47;101896.59;;;21.35;68.85
76766;BME280;65707;52.362;6.588;2023-10-09T11:36:16;101898.66;;;21.53;67.36
76766;BME280;65707;52.362;6.588;2023-10-09T11:38:48;101906.16;;;21.71;67.18
76766;BME280;65707;52.362;6.588;2023-10-09T11:41:39;101912.88;;;21.81;66.80
76766;BME280;65707;52.362;6.588;2023-10-09T11:44:06;101922.94;;;21.94;66.35
76766;BME280;65707;52.362;6.588;2023-10-09T11:46:57;101913.50;;;21.83;66.12
76766;BME280;65707;52.362;6.588;2023-10-09T11:49:47;101928.03;;;21.71;66.50
76766;BME280;65707;52.362;6.588;2023-10-09T11:52:21;101929.72;;;21.59;67.02
76766;BME280;65707;52.362;6.588;2023-10-09T11:55:06;101918.63;;;21.54;67.13
76766;BME280;65707;52.362;6.588;2023-10-09T11:57:45;101911.47;;;21.52;67.80
76766;BME280;65707;52.362;6.588;2023-10-09T12:00:15;101918.84;;;21.39;68.27
76766;BME280;65707;52.362;6.588;2023-10-09T12:02:58;101927.28;;;21.37;68.64
76766;BME280;65707;52.362;6.588;2023-10-09T12:05:30;101931.88;;;21.30;68.74
76766;BME280;65707;52.362;6.588;2023-10-09T12:07:57;101930.22;;;21.10;69.63
76766;BME280;65707;52.362;6.588;2023-10-09T12:10:31;101940.31;;;21.03;70.39
76766;BME280;65707;52.362;6.588;2023-10-09T12:12:59;101944.94;;;21.02;71.44
76766;BME280;65707;52.362;6.588;2023-10-09T12:18:20;101944.88;;;20.76;72.90
76766;BME280;65707;52.362;6.588;2023-10-09T12:20:54;101952.41;;;20.61;73.82
76766;BME280;65707;52.362;6.588;2023-10-09T12:23:32;101945.06;;;20.55;74.29
76766;BME280;65707;52.362;6.588;2023-10-09T12:26:04;101937.94;;;20.54;74.32
76766;BME280;65707;52.362;6.588;2023-10-09T12:28:38;101931.84;;;20.52;74.45
76766;BME280;65707;52.362;6.588;2023-10-09T12:31:07;101928.91;;;20.60;74.77
76766;BME280;65707;52.362;6.588;2023-10-09T12:33:34;101931.88;;;20.65;74.14
76766;BME280;65707;52.362;6.588;2023-10-09T12:36:05;101927.69;;;20.82;73.34
76766;BME280;65707;52.362;6.588;2023-10-09T12:38:36;101927.25;;;20.92;72.96
76766;BME280;65707;52.362;6.588;2023-10-09T12:41:15;101927.69;;;21.02;72.47
76766;BME280;65707;52.362;6.588;2023-10-09T12:43:48;101919.13;;;21.05;72.10
76766;BME280;65707;52.362;6.588;2023-10-09T12:46:19;101924.13;;;21.14;72.31
76766;BME280;65707;52.362;6.588;2023-10-09T12:48:48;101915.28;;;21.25;71.63
76766;BME280;65707;52.362;6.588;2023-10-09T12:51:15;101914.25;;;21.26;71.14
76766;BME280;65707;52.362;6.588;2023-10-09T12:53:47;101907.94;;;21.32;71.04
76766;BME280;65707;52.362;6.588;2023-10-09T12:56:23;101910.88;;;21.37;71.20
76766;BME280;65707;52.362;6.588;2023-10-09T12:59:08;101899.09;;;21.50;69.69
76766;BME280;65707;52.362;6.588;2023-10-09T13:01:42;101898.66;;;21.46;70.58
76766;BME280;65707;52.362;6.588;2023-10-09T13:04:09;101899.72;;;21.52;70.35
76766;BME280;65707;52.362;6.588;2023-10-09T13:06:37;101914.16;;;21.66;69.92
76766;BME280;65707;52.362;6.588;2023-10-09T13:09:09;101905.34;;;21.77;69.52
76766;BME280;65707;52.362;6.588;2023-10-09T13:11:38;101902.38;;;21.72;68.80
76766;BME280;65707;52.362;6.588;2023-10-09T13:14:06;101916.28;;;21.57;69.21
76766;BME280;65707;52.362;6.588;2023-10-09T13:16:42;101908.78;;;21.39;70.16
76766;BME280;65707;52.362;6.588;2023-10-09T13:19:11;101914.00;;;21.47;70.14
76766;BME280;65707;52.362;6.588;2023-10-09T13:21:38;101915.91;;;21.54;70.13
76766;BME280;65707;52.362;6.588;2023-10-09T13:24:08;101911.03;;;21.75;69.24
76766;BME280;65707;52.362;6.588;2023-10-09T13:26:39;101904.41;;;22.02;68.41
76766;BME280;65707;52.362;6.588;2023-10-09T13:29:11;101898.81;;;22.22;67.71
76766;BME280;65707;52.362;6.588;2023-10-09T13:31:47;101889.25;;;22.37;67.14
76766;BME280;65707;52.362;6.588;2023-10-09T13:34:17;101898.97;;;22.33;66.55
76766;BME280;65707;52.362;6.588;2023-10-09T13:36:44;101895.16;;;22.34;67.30
76766;BME280;65707;52.362;6.588;2023-10-09T13:39:15;101902.25;;;22.42;66.67